createdAt,value
2022-12-11T00:01:15.192Z,97020.59
2022-12-11T00:03:48.255Z,97019.50
2022-12-11T00:06:19.185Z,97020.03
2022-12-11T00:08:52.930Z,97023.03
2022-12-11T00:11:23.503Z,97006.78
2022-12-11T00:13:51.818Z,97000.03
2022-12-11T00:16:25.224Z,97005.16
2022-12-11T00:18:56.535Z,96990.00
2022-12-11T00:21:25.232Z,96994.06
2022-12-11T00:23:56.525Z,96981.91
2022-12-11T00:26:24.773Z,96985.25
2022-12-11T00:28:54.968Z,96978.88
2022-12-11T00:31:24.708Z,96984.88
2022-12-11T00:33:53.194Z,96989.19
2022-12-11T00:36:24.716Z,96984.84
2022-12-11T00:38:52.980Z,96984.16
2022-12-11T00:41:21.663Z,96973.47
2022-12-11T00:43:49.885Z,96979.47
2022-12-11T00:46:18.380Z,96975.66
2022-12-11T00:48:48.749Z,96979.19
2022-12-11T00:51:17.274Z,96987.03
2022-12-11T00:53:46.790Z,96981.88
2022-12-11T00:56:17.255Z,96979.41
2022-12-11T00:58:45.826Z,96984.88
2022-12-11T01:01:17.134Z,96982.13
2022-12-11T01:03:45.597Z,96982.44
2022-12-11T01:06:16.309Z,96992.16
2022-12-11T01:08:46.981Z,96988.88
2022-12-11T01:11:15.655Z,96991.34
2022-12-11T01:13:44.160Z,96984.28
2022-12-11T01:16:14.990Z,96979.34
2022-12-11T01:18:43.495Z,96982.13
2022-12-11T01:21:14.261Z,96975.03
2022-12-11T01:23:42.473Z,96970.75
2022-12-11T01:26:14.900Z,96969.03
2022-12-11T01:28:43.328Z,96969.69
2022-12-11T01:31:12.597Z,96962.88
2022-12-11T01:33:41.263Z,96971.28
2022-12-11T01:36:11.318Z,96955.56
2022-12-11T01:38:39.429Z,96968.88
2022-12-11T01:41:08.301Z,96961.53
2022-12-11T01:43:57.391Z,96960.84
2022-12-11T01:46:26.074Z,96949.69
2022-12-11T01:48:55.267Z,96951.53
2022-12-11T01:51:24.977Z,96964.03
2022-12-11T01:53:56.647Z,96961.03
2022-12-11T01:56:25.383Z,96954.84
2022-12-11T01:58:59.888Z,96948.00
2022-12-11T02:01:32.195Z,96951.81
2022-12-11T02:04:01.283Z,96951.31
2022-12-11T02:06:33.146Z,96951.25
2022-12-11T02:09:01.995Z,96951.03
2022-12-11T02:11:37.080Z,96948.53
2022-12-11T02:14:10.943Z,96957.22
2022-12-11T02:16:45.478Z,96956.94
2022-12-11T02:19:22.468Z,96952.59
2022-12-11T02:21:53.319Z,96952.34
2022-12-11T02:24:28.771Z,96958.84
2022-12-11T02:27:15.293Z,96968.00
2022-12-11T02:29:49.619Z,96961.81
2022-12-11T02:32:22.477Z,96957.25
2022-12-11T02:34:55.871Z,96958.31
2022-12-11T02:37:26.407Z,96956.97
2022-12-11T02:39:56.063Z,96963.19
2022-12-11T02:42:28.690Z,96945.84
2022-12-11T02:45:00.722Z,96954.75
2022-12-11T02:47:30.824Z,96946.63
2022-12-11T02:50:01.349Z,96940.97
2022-12-11T02:52:31.916Z,96940.94
2022-12-11T02:55:01.071Z,96935.00
2022-12-11T02:57:33.560Z,96939.31
2022-12-11T03:00:03.680Z,96935.53
2022-12-11T03:02:32.155Z,96935.91
2022-12-11T03:05:00.856Z,96932.06
2022-12-11T03:07:33.552Z,96934.47
2022-12-11T03:10:02.183Z,96929.41
2022-12-11T03:12:32.896Z,96923.66
2022-12-11T03:15:03.774Z,96923.09
2022-12-11T03:17:36.099Z,96929.59
2022-12-11T03:20:10.781Z,96931.75
2022-12-11T03:22:42.642Z,96936.34
2022-12-11T03:25:14.301Z,96929.59
2022-12-11T03:27:46.641Z,96931.50
2022-12-11T03:30:19.324Z,96937.72
2022-12-11T03:32:54.320Z,96938.28
2022-12-11T03:35:26.936Z,96935.06
2022-12-11T03:37:55.861Z,96939.41
2022-12-11T03:40:25.791Z,96928.84
2022-12-11T03:42:55.127Z,96935.63
2022-12-11T03:45:26.255Z,96925.63
2022-12-11T03:47:54.454Z,96914.97
2022-12-11T03:50:24.219Z,96922.06
2022-12-11T03:52:53.509Z,96918.31
2022-12-11T03:55:22.836Z,96921.53
2022-12-11T03:57:51.343Z,96919.94
2022-12-11T04:00:21.432Z,96919.38
2022-12-11T04:03:13.837Z,96905.28
2022-12-11T04:05:43.171Z,96909.69
2022-12-11T04:08:11.852Z,96917.25
2022-12-11T04:10:40.571Z,96905.06
2022-12-11T04:13:09.431Z,96902.38
2022-12-11T04:15:37.560Z,96905.31
2022-12-11T04:18:25.637Z,96903.69
2022-12-11T04:21:12.727Z,96905.03
2022-12-11T04:23:58.737Z,96902.91
2022-12-11T04:26:26.968Z,96908.03
2022-12-11T04:28:56.004Z,96899.91
2022-12-11T04:31:24.270Z,96899.09
2022-12-11T04:33:54.230Z,96912.91
2022-12-11T04:36:22.476Z,96901.00
2022-12-11T04:38:51.007Z,96897.75
2022-12-11T04:41:19.235Z,96902.09
2022-12-11T04:43:47.658Z,96896.97
2022-12-11T04:46:18.652Z,96892.03
2022-12-11T04:48:51.207Z,96891.81
2022-12-11T04:51:23.521Z,96892.31
2022-12-11T04:53:51.952Z,96892.09
2022-12-11T04:56:20.468Z,96892.34
2022-12-11T04:58:49.483Z,96886.94
2022-12-11T05:01:19.777Z,96890.72
2022-12-11T05:03:48.575Z,96889.91
2022-12-11T05:06:17.179Z,96890.72
2022-12-11T05:08:47.035Z,96896.66
2022-12-11T05:11:16.859Z,96894.75
2022-12-11T05:13:46.142Z,96887.47
2022-12-11T05:16:17.061Z,96885.00
2022-12-11T05:18:45.328Z,96887.06
2022-12-11T05:21:15.593Z,96884.75
2022-12-11T05:23:44.273Z,96882.09
2022-12-11T05:26:15.963Z,96883.94
2022-12-11T05:28:44.971Z,96878.31
2022-12-11T05:31:15.309Z,96876.09
2022-12-11T05:33:44.013Z,96870.19
2022-12-11T05:36:15.232Z,96875.84
2022-12-11T05:38:44.108Z,96870.44
2022-12-11T05:41:15.269Z,96867.44
2022-12-11T05:43:46.439Z,96871.81
2022-12-11T05:46:16.871Z,96872.59
2022-12-11T05:48:47.340Z,96869.88
2022-12-11T05:51:16.947Z,96876.66
2022-12-11T05:53:46.224Z,96873.94
2022-12-11T05:56:16.988Z,96871.19
2022-12-11T05:58:46.025Z,96878.28
2022-12-11T06:01:16.198Z,96877.19
2022-12-11T06:03:44.944Z,96875.56
2022-12-11T06:06:13.191Z,96875.03
2022-12-11T06:08:41.601Z,96879.09
2022-12-11T06:11:09.762Z,96879.91
2022-12-11T06:13:39.673Z,96874.19
2022-12-11T06:16:09.341Z,96877.97
2022-12-11T06:18:38.167Z,96879.06
2022-12-11T06:21:18.218Z,96881.47
2022-12-11T06:23:47.463Z,96884.50
2022-12-11T06:26:16.363Z,96885.28
2022-12-11T06:28:46.468Z,96892.31
2022-12-11T06:31:15.675Z,96895.31
2022-12-11T06:33:44.477Z,96888.03
2022-12-11T06:36:14.414Z,96896.97
2022-12-11T06:38:42.817Z,96892.91
2022-12-11T06:41:11.522Z,96901.56
2022-12-11T06:43:41.311Z,96895.31
2022-12-11T06:46:12.602Z,96890.41
2022-12-11T06:48:42.325Z,96895.31
2022-12-11T06:51:11.647Z,96903.97
2022-12-11T06:53:40.431Z,96900.47
2022-12-11T06:56:10.514Z,96900.41
2022-12-11T06:58:39.775Z,96898.28
2022-12-11T07:01:17.263Z,96896.59
2022-12-11T07:03:46.060Z,96897.22
2022-12-11T07:06:14.296Z,96892.09
2022-12-11T07:08:43.688Z,96900.47
2022-12-11T07:11:13.890Z,96902.88
2022-12-11T07:13:43.140Z,96889.34
2022-12-11T07:16:13.115Z,96906.94
2022-12-11T07:18:44.586Z,96896.63
2022-12-11T07:21:14.404Z,96909.09
2022-12-11T07:23:43.020Z,96902.63
2022-12-11T07:26:12.940Z,96902.59
2022-12-11T07:28:41.930Z,96897.75
2022-12-11T07:31:11.735Z,96906.41
2022-12-11T07:33:42.355Z,96902.09
2022-12-11T07:36:12.079Z,96905.88
2022-12-11T07:38:40.766Z,96911.81
2022-12-11T07:41:13.542Z,96915.06
2022-12-11T07:43:42.720Z,96915.59
2022-12-11T07:46:13.456Z,96923.75
2022-12-11T07:48:44.121Z,96929.94
2022-12-11T07:51:12.963Z,96911.56
2022-12-11T07:53:41.304Z,96919.34
2022-12-11T07:56:09.718Z,96922.09
2022-12-11T07:58:39.074Z,96924.75
2022-12-11T08:01:07.699Z,96929.13
2022-12-11T08:03:36.122Z,96924.00
2022-12-11T08:06:06.885Z,96919.69
2022-12-11T08:08:35.469Z,96930.75
2022-12-11T08:11:03.981Z,96922.38
2022-12-11T08:13:32.917Z,96921.03
2022-12-11T08:16:04.844Z,96921.56
2022-12-11T08:18:34.725Z,96921.31
2022-12-11T08:21:07.865Z,96919.38
2022-12-11T08:23:36.379Z,96924.81
2022-12-11T08:26:07.402Z,96920.75
2022-12-11T08:28:35.962Z,96924.81
2022-12-11T08:31:05.429Z,96919.13
2022-12-11T08:33:34.015Z,96922.91
2022-12-11T08:36:03.862Z,96917.78
2022-12-11T08:38:33.642Z,96922.66
2022-12-11T08:41:09.812Z,96924.28
2022-12-11T08:43:38.403Z,96928.59
2022-12-11T08:46:07.358Z,96920.19
2022-12-11T08:48:36.745Z,96926.69
2022-12-11T08:51:06.753Z,96932.09
2022-12-11T08:53:36.559Z,96931.81
2022-12-11T08:56:04.964Z,96924.78
2022-12-11T08:58:33.596Z,96928.31
2022-12-11T09:01:02.019Z,96924.78
2022-12-11T09:03:30.552Z,96931.31
2022-12-11T09:05:58.701Z,96922.09
2022-12-11T09:08:27.995Z,96920.72
2022-12-11T09:10:57.893Z,96921.53
2022-12-11T09:13:26.360Z,96915.06
2022-12-11T09:15:54.478Z,96920.75
2022-12-11T09:18:22.916Z,96907.50
2022-12-11T09:20:59.756Z,96908.53
2022-12-11T09:23:28.367Z,96905.59
2022-12-11T09:25:58.228Z,96906.16
2022-12-11T09:28:26.983Z,96902.91
2022-12-11T09:30:55.249Z,96905.06
2022-12-11T09:33:23.770Z,96903.19
2022-12-11T09:35:58.829Z,96914.50
2022-12-11T09:38:27.639Z,96906.44
2022-12-11T09:40:57.307Z,96912.88
2022-12-11T09:43:34.644Z,96914.50
2022-12-11T09:46:04.733Z,96916.66
2022-12-11T09:48:34.144Z,96915.63
2022-12-11T09:51:06.975Z,96907.75
2022-12-11T09:53:37.707Z,96908.31
2022-12-11T09:56:14.912Z,96905.84
2022-12-11T09:58:55.108Z,96899.59
2022-12-11T10:01:28.994Z,96892.31
2022-12-11T10:04:17.409Z,96899.84
2022-12-11T10:06:50.052Z,96896.38
2022-12-11T10:09:21.372Z,96897.66
2022-12-11T10:12:03.123Z,96898.19
2022-12-11T10:14:41.279Z,96904.41
2022-12-11T10:17:12.706Z,96900.09
2022-12-11T10:19:42.369Z,96882.03
2022-12-11T10:22:17.483Z,96885.78
2022-12-11T10:27:41.743Z,96893.41
2022-12-11T10:30:17.007Z,96890.16
2022-12-11T10:32:52.394Z,96892.59
2022-12-11T10:35:28.450Z,96888.22
2022-12-11T10:37:58.922Z,96889.91
2022-12-11T10:40:27.415Z,96897.75
2022-12-11T10:42:57.246Z,96885.56
2022-12-11T10:45:25.670Z,96886.94
2022-12-11T10:48:03.603Z,96883.56
2022-12-11T10:50:32.180Z,96879.63
2022-12-11T10:53:00.340Z,96878.84
2022-12-11T10:55:30.163Z,96879.59
2022-12-11T10:58:02.272Z,96866.06
2022-12-11T11:00:34.663Z,96868.50
2022-12-11T11:03:03.633Z,96864.72
2022-12-11T11:05:34.930Z,96853.63
2022-12-11T11:08:15.451Z,96851.06
2022-12-11T11:10:54.928Z,96850.28
2022-12-11T11:13:26.961Z,96849.78
2022-12-11T11:16:01.459Z,96843.53
2022-12-11T11:18:31.078Z,96848.47
2022-12-11T11:21:00.713Z,96838.19
2022-12-11T11:23:29.531Z,96843.88
2022-12-11T11:25:59.960Z,96852.00
2022-12-11T11:28:31.506Z,96847.38
2022-12-11T11:31:02.954Z,96834.94
2022-12-11T11:33:32.576Z,96851.19
2022-12-11T11:36:02.926Z,96849.59
2022-12-11T11:38:34.109Z,96837.69
2022-12-11T11:41:14.675Z,96848.22
2022-12-11T11:43:47.633Z,96839.56
2022-12-11T11:46:19.611Z,96841.50
2022-12-11T11:48:53.018Z,96849.88
2022-12-11T11:51:27.055Z,96852.84
2022-12-11T11:53:58.382Z,96840.44
2022-12-11T11:56:28.400Z,96837.47
2022-12-11T11:59:07.521Z,96840.97
2022-12-11T12:01:36.127Z,96837.75
2022-12-11T12:04:05.997Z,96846.38
2022-12-11T12:06:57.702Z,96835.53
2022-12-11T12:09:35.337Z,96843.13
2022-12-11T12:12:12.974Z,96839.59
2022-12-11T12:14:53.440Z,96844.72
2022-12-11T12:17:27.214Z,96844.75
2022-12-11T12:20:01.425Z,96847.47
2022-12-11T12:22:39.479Z,96838.00
2022-12-11T12:25:17.647Z,96839.88
2022-12-11T12:27:53.146Z,96841.53
2022-12-11T12:30:23.986Z,96837.22
2022-12-11T12:33:03.403Z,96834.25
2022-12-11T12:35:35.867Z,96844.78
2022-12-11T12:38:10.323Z,96841.53
2022-12-11T12:40:46.773Z,96843.72
2022-12-11T12:43:34.108Z,96848.56
2022-12-11T12:46:11.987Z,96849.38
2022-12-11T12:48:40.556Z,96841.53
2022-12-11T12:51:10.990Z,96842.06
2022-12-11T12:53:39.710Z,96842.63
2022-12-11T12:56:08.873Z,96851.53
2022-12-11T12:58:43.091Z,96852.06
2022-12-11T13:01:17.816Z,96855.59
2022-12-11T13:03:55.902Z,96855.31
2022-12-11T13:06:32.964Z,96857.75
2022-12-11T13:09:13.876Z,96862.09
2022-12-11T13:11:42.262Z,96865.03
2022-12-11T13:14:27.314Z,96869.63
2022-12-11T13:17:09.335Z,96873.97
2022-12-11T13:19:42.600Z,96875.84
2022-12-11T13:22:24.574Z,96870.72
2022-12-11T13:25:01.875Z,96868.28
2022-12-11T13:27:39.550Z,96863.19
2022-12-11T13:30:17.999Z,96873.41
2022-12-11T13:32:56.633Z,96868.84
2022-12-11T13:35:25.704Z,96875.34
2022-12-11T13:37:55.429Z,96871.00
2022-12-11T13:40:27.660Z,96875.34
2022-12-11T13:42:57.425Z,96874.50
2022-12-11T13:45:29.158Z,96862.06
2022-12-11T13:48:00.013Z,96878.56
2022-12-11T13:50:31.159Z,96880.94
2022-12-11T13:53:01.123Z,96882.56
2022-12-11T13:55:32.381Z,96882.84
2022-12-11T13:58:00.842Z,96889.50
2022-12-11T14:00:32.908Z,96894.09
2022-12-11T14:03:07.517Z,96900.09
2022-12-11T14:05:36.637Z,96895.97
2022-12-11T14:08:10.122Z,96891.72
2022-12-11T14:10:38.972Z,96887.00
2022-12-11T14:13:14.968Z,96899.81
2022-12-11T14:15:45.556Z,96900.66
2022-12-11T14:18:16.468Z,96898.19
2022-12-11T14:20:44.960Z,96900.44
2022-12-11T14:23:18.753Z,96898.19
2022-12-11T14:25:54.444Z,96903.34
2022-12-11T14:28:27.514Z,96911.09
2022-12-11T14:30:59.275Z,96905.63
2022-12-11T14:33:33.520Z,96904.13
2022-12-11T14:36:03.105Z,96911.63
2022-12-11T14:38:34.217Z,96906.84
2022-12-11T14:41:05.301Z,96903.06
2022-12-11T14:43:36.460Z,96901.44
2022-12-11T14:46:09.087Z,96891.09
2022-12-11T14:48:47.273Z,96903.09
2022-12-11T14:51:19.235Z,96899.28
2022-12-11T14:53:49.349Z,96887.56
2022-12-11T14:56:20.087Z,96896.25
2022-12-11T14:58:54.843Z,96902.50
2022-12-11T15:01:25.285Z,96906.22
2022-12-11T15:04:06.629Z,96894.19
2022-12-11T15:06:36.669Z,96894.81
2022-12-11T15:09:18.514Z,96899.28
2022-12-11T15:11:48.472Z,96899.41
2022-12-11T15:14:17.932Z,96903.94
2022-12-11T15:16:47.167Z,96902.00
2022-12-11T15:19:23.563Z,96901.59
2022-12-11T15:21:52.862Z,96903.28
2022-12-11T15:24:27.329Z,96905.84
2022-12-11T15:26:59.267Z,96916.44
2022-12-11T15:29:33.353Z,96916.28
2022-12-11T15:32:04.389Z,96913.22
2022-12-11T15:34:44.420Z,96919.06
2022-12-11T15:37:19.857Z,96918.22
2022-12-11T15:39:48.014Z,96918.69
2022-12-11T15:42:20.303Z,96913.00
2022-12-11T15:44:48.449Z,96921.72
2022-12-11T15:47:18.460Z,96921.59
2022-12-11T15:49:47.966Z,96929.31
2022-12-11T15:52:16.327Z,96923.47
2022-12-11T15:54:44.488Z,96920.81
2022-12-11T15:57:17.777Z,96918.09
2022-12-11T15:59:47.612Z,96931.81
2022-12-11T16:02:16.471Z,96927.47
2022-12-11T16:04:44.915Z,96938.91
2022-12-11T16:07:18.788Z,96935.09
2022-12-11T16:09:47.400Z,96937.56
2022-12-11T16:12:16.320Z,96945.44
2022-12-11T16:14:45.060Z,96937.34
2022-12-11T16:17:14.561Z,96936.84
2022-12-11T16:19:43.904Z,96942.00
2022-12-11T16:22:13.722Z,96940.69
2022-12-11T16:24:43.509Z,96940.22
2022-12-11T16:27:11.960Z,96931.41
2022-12-11T16:29:42.372Z,96929.16
2022-12-11T16:32:11.340Z,96938.22
2022-12-11T16:34:40.225Z,96929.53
2022-12-11T16:37:09.642Z,96937.13
2022-12-11T16:39:39.473Z,96937.38
2022-12-11T16:42:09.344Z,96943.31
2022-12-11T16:44:42.511Z,96950.72
2022-12-11T16:47:12.525Z,96944.47
2022-12-11T16:49:40.941Z,96953.97
2022-12-11T16:52:09.460Z,96947.69
2022-12-11T16:54:37.788Z,96943.94
2022-12-11T16:57:06.396Z,96950.13
2022-12-11T16:59:37.700Z,96947.59
2022-12-11T17:02:06.624Z,96954.19
2022-12-11T17:04:34.899Z,96952.31
2022-12-11T17:07:03.430Z,96957.66
2022-12-11T17:09:31.701Z,96956.34
2022-12-11T17:12:00.426Z,96956.34
2022-12-11T17:14:28.995Z,96956.88
2022-12-11T17:16:58.947Z,96959.78
2022-12-11T17:19:27.117Z,96960.91
2022-12-11T17:21:56.195Z,96969.78
2022-12-11T17:24:24.341Z,96965.22
2022-12-11T17:26:52.870Z,96958.16
2022-12-11T17:29:21.369Z,96956.03
2022-12-11T17:31:49.863Z,96952.22
2022-12-11T17:34:19.447Z,96954.75
2022-12-11T17:36:48.492Z,96947.47
2022-12-11T17:39:16.711Z,96948.75
2022-12-11T17:41:56.346Z,96948.47
2022-12-11T17:44:26.686Z,96955.56
2022-12-11T17:46:55.370Z,96956.69
2022-12-11T17:49:24.960Z,96966.91
2022-12-11T17:51:55.489Z,96962.72
2022-12-11T17:54:24.082Z,96965.72
2022-12-11T17:56:52.689Z,96959.28
2022-12-11T17:59:20.803Z,96964.78
2022-12-11T18:01:49.322Z,96962.44
2022-12-11T18:04:17.467Z,96960.56
2022-12-11T18:06:47.470Z,96975.53
2022-12-11T18:09:18.027Z,96972.91
2022-12-11T18:11:46.779Z,96974.41
2022-12-11T18:14:17.444Z,96970.31
2022-12-11T18:16:46.349Z,96969.97
2022-12-11T18:19:15.476Z,96958.50
2022-12-11T18:21:47.373Z,96959.06
2022-12-11T18:24:15.898Z,96958.03
2022-12-11T18:26:44.561Z,96953.41
2022-12-11T18:29:13.017Z,96954.97
2022-12-11T18:31:42.865Z,96951.50
2022-12-11T18:34:11.865Z,96948.56
2022-12-11T18:36:41.520Z,96953.91
2022-12-11T18:39:11.117Z,96952.00
2022-12-11T18:41:40.089Z,96960.63
2022-12-11T18:44:10.126Z,96961.69
2022-12-11T18:46:39.686Z,96958.19
2022-12-11T18:49:08.243Z,96959.00
2022-12-11T18:51:37.402Z,96961.97
2022-12-11T18:54:05.624Z,96960.44
2022-12-11T18:56:35.561Z,96957.66
2022-12-11T18:59:04.692Z,96968.81
2022-12-11T19:01:34.742Z,96962.34
2022-12-11T19:04:06.667Z,96965.09
2022-12-11T19:06:37.522Z,96969.66
2022-12-11T19:09:07.025Z,96970.50
2022-12-11T19:11:37.518Z,96971.78
2022-12-11T19:14:06.343Z,96973.72
2022-12-11T19:16:37.245Z,96969.34
2022-12-11T19:19:09.902Z,96962.06
2022-12-11T19:21:38.713Z,96957.38
2022-12-11T19:24:08.137Z,96954.84
2022-12-11T19:26:38.146Z,96964.63
2022-12-11T19:29:06.281Z,96959.59
2022-12-11T19:31:35.179Z,96962.34
2022-12-11T19:34:04.038Z,96964.53
2022-12-11T19:36:33.733Z,96961.78
2022-12-11T19:39:05.036Z,96960.56
2022-12-11T19:41:37.019Z,96958.03
2022-12-11T19:44:05.432Z,96962.91
2022-12-11T19:46:34.041Z,96959.16
2022-12-11T19:49:02.731Z,96958.34
2022-12-11T19:51:33.866Z,96954.03
2022-12-11T19:54:02.964Z,96969.22
2022-12-11T19:56:32.067Z,96955.47
2022-12-11T19:59:03.090Z,96958.78
2022-12-11T20:01:32.493Z,96955.00
2022-12-11T20:04:02.409Z,96955.16
2022-12-11T20:06:32.344Z,96959.66
2022-12-11T20:09:00.847Z,96963.81
2022-12-11T20:11:29.535Z,96961.31
2022-12-11T20:13:57.771Z,96961.53
2022-12-11T20:16:53.777Z,96966.22
2022-12-11T20:19:15.870Z,96965.50
2022-12-11T20:21:44.418Z,96963.81
2022-12-11T20:24:12.620Z,96965.72
2022-12-11T20:26:41.260Z,96973.97
2022-12-11T20:29:09.637Z,96969.16
2022-12-11T20:31:39.557Z,96972.81
2022-12-11T20:34:08.670Z,96970.28
2022-12-11T20:36:37.051Z,96974.53
2022-12-11T20:39:05.357Z,96971.75
2022-12-11T20:41:33.905Z,96970.09
2022-12-11T20:44:02.730Z,96965.09
2022-12-11T20:46:31.253Z,96965.47
2022-12-11T20:49:00.796Z,96961.72
2022-12-11T20:51:30.012Z,96960.50
2022-12-11T20:53:59.412Z,96962.00
2022-12-11T20:56:29.885Z,96962.94
2022-12-11T20:58:58.724Z,96968.84
2022-12-11T21:01:29.248Z,96962.78
2022-12-11T21:03:58.045Z,96965.44
2022-12-11T21:06:31.450Z,96959.63
2022-12-11T21:09:01.238Z,96954.31
2022-12-11T21:11:29.856Z,96968.25
2022-12-11T21:13:58.203Z,96969.31
2022-12-11T21:16:26.920Z,96965.25
2022-12-11T21:18:56.033Z,96967.00
2022-12-11T21:21:24.873Z,96966.31
2022-12-11T21:23:54.492Z,96962.53
2022-12-11T21:26:23.027Z,96956.56
2022-12-11T21:28:51.287Z,96964.16
2022-12-11T21:31:21.552Z,96961.69
2022-12-11T21:33:50.347Z,96957.13
2022-12-11T21:36:19.045Z,96962.25
2022-12-11T21:38:47.783Z,96959.31
2022-12-11T21:41:19.812Z,96962.75
2022-12-11T21:46:37.736Z,96972.06
2022-12-11T21:49:06.009Z,96960.13
2022-12-11T21:51:39.475Z,96965.50
2022-12-11T21:54:14.529Z,96967.19
2022-12-11T21:56:44.732Z,96960.09
2022-12-11T21:59:13.148Z,96972.78
2022-12-11T22:01:46.049Z,96966.88
2022-12-11T22:04:15.834Z,96964.28
2022-12-11T22:06:47.201Z,96964.75
2022-12-11T22:09:16.362Z,96960.91
2022-12-11T22:11:47.492Z,96963.19
2022-12-11T22:14:16.804Z,96958.72
2022-12-11T22:16:45.528Z,96966.13
2022-12-11T22:19:14.121Z,96964.28
2022-12-11T22:21:42.657Z,96964.44
2022-12-11T22:24:10.869Z,96961.75
2022-12-11T22:26:39.238Z,96962.84
2022-12-11T22:29:09.152Z,96961.84
2022-12-11T22:31:37.730Z,96963.13
2022-12-11T22:34:05.916Z,96967.19
2022-12-11T22:36:35.061Z,96958.84
2022-12-11T22:39:05.254Z,96953.81
2022-12-11T22:41:34.202Z,96959.41
2022-12-11T22:44:02.848Z,96953.06
2022-12-11T22:46:32.919Z,96954.72
2022-12-11T22:49:01.271Z,96952.59
2022-12-11T22:51:29.717Z,96956.66
2022-12-11T22:53:59.270Z,96955.75
2022-12-11T22:56:27.899Z,96956.88
2022-12-11T22:58:57.545Z,96946.91
2022-12-11T23:01:27.927Z,96945.84
2022-12-11T23:04:00.174Z,96940.25
2022-12-11T23:06:28.716Z,96951.81
2022-12-11T23:08:59.459Z,96943.22
2022-12-11T23:11:29.921Z,96938.91
2022-12-11T23:13:58.509Z,96943.19
2022-12-11T23:16:28.435Z,96941.22
2022-12-11T23:18:58.812Z,96946.22
2022-12-11T23:21:28.926Z,96938.66
2022-12-11T23:24:01.134Z,96940.41
2022-12-11T23:26:30.219Z,96938.97
2022-12-11T23:28:59.436Z,96946.50
2022-12-11T23:31:28.480Z,96947.06
2022-12-11T23:34:01.482Z,96947.72
2022-12-11T23:36:30.836Z,96941.25
2022-12-11T23:38:59.355Z,96945.41
2022-12-11T23:41:27.787Z,96938.94
2022-12-11T23:43:55.945Z,96941.94
2022-12-11T23:46:26.149Z,96940.28
2022-12-11T23:48:55.388Z,96944.28
2022-12-11T23:51:26.688Z,96941.38
2022-12-11T23:53:55.478Z,96936.47
2022-12-11T23:56:25.731Z,96937.84
2022-12-11T23:58:54.348Z,96936.47
